Hauptseite
METAR-TAF:

METAR-TAF

Flughäfen :

Pointe-Noire, Kongo

Flughafen Pointe-Noire

Breite: 04-49S, Länge: 011-54E, Höhe: 17 m

Beobachtung

Neuester Wetterbericht von vor 1 Stunde und 11 Minuten, um 13:00 UTC
Wind 12 kt aus Süd
Temperatur 27°C
Luftfeuchtigkeit 74%
Luftdruck 1012 hPa
Sichtweite 10 km oder mehr
Aufgelockert bewölkt in der Höhe von 1500 ft
Durchbrochene Bewölkung in der Höhe von 2600 ft

METAR: FCPP 201300Z 19012KT 9999 SCT015 BKN026 27/22 Q1012 NOSIG

Zeit: 15:11 (14:11 UTC)

Prognose

Neuester Wetterbericht von vor 3 Stunden und 11 Minuten, um 11:00 UTC
Gültige Prognose vom 20 um 12 UTC bis 21 um 12 UTC
Wind 8 kt aus Süd
Sichtweite: 8000 m
Aufgelockert bewölkt in der Höhe von 1300 ft
Geschlossene Wolkendecke in der Höhe von 2300 ft

TAF: FCPP 201100Z 2012/2112 18008KT 8000 SCT013 OVC023

Wetterbeobachtungen und Prognosen von mehr als 4000 Flughäfen (METAR und TAF Bericht).

Die verfügbaren Stationen werden durch gelbe und rote Markierungen auf der Karte dargestellt.

Führen Sie die Maus auf sie, um den Namen der Station zu sehen.

Darauf klicken, um die Beobachtung von Wetterbeobachtungen und Prognosen zu sehen.

Um die Karte zu ändern : klicken Sie auf den grünen Tasten mit einem schwarzen Kreuz Zum Vergrößern, auf den grünen Button mit einem Gedankenstrich zu verkleinern, oder auf die grünen Pfeile für benachbarte Karten.


METAR-TAF: